createdAt,value
2019-01-29T00:02:23.153Z,24.93
2019-01-29T00:04:51.612Z,23.70
2019-01-29T00:07:20.120Z,25.87
2019-01-29T00:09:48.584Z,32.87
2019-01-29T00:12:17.038Z,27.67
2019-01-29T00:14:46.577Z,23.60
2019-01-29T00:17:15.031Z,14.70
2019-01-29T00:19:43.476Z,11.93
2019-01-29T00:22:11.957Z,4.90
2019-01-29T00:24:40.406Z,6.23
2019-01-29T00:27:08.859Z,7.23
2019-01-29T00:29:37.417Z,5.43
2019-01-29T00:32:05.868Z,11.30
2019-01-29T00:34:34.334Z,11.50
2019-01-29T00:37:02.815Z,16.00
2019-01-29T00:39:31.263Z,14.60
2019-01-29T00:41:59.711Z,14.93
2019-01-29T00:44:28.211Z,14.57
2019-01-29T00:46:56.660Z,23.53
2019-01-29T00:49:25.111Z,16.60
2019-01-29T00:51:53.611Z,21.23
2019-01-29T00:54:22.061Z,23.93
2019-01-29T00:56:50.519Z,34.40
2019-01-29T00:59:19.009Z,25.43
2019-01-29T01:01:47.459Z,13.33
2019-01-29T01:04:15.911Z,22.87
2019-01-29T01:06:44.414Z,22.27
2019-01-29T01:09:12.873Z,23.63
2019-01-29T01:11:41.325Z,17.80
2019-01-29T01:14:09.808Z,15.77
2019-01-29T01:16:38.382Z,16.63
2019-01-29T01:19:06.900Z,11.53
2019-01-29T01:21:35.399Z,11.27
2019-01-29T01:24:03.844Z,9.47
2019-01-29T01:26:32.292Z,9.60
2019-01-29T01:29:00.794Z,7.20
2019-01-29T01:31:29.252Z,9.37
2019-01-29T01:33:57.697Z,9.30
2019-01-29T01:36:26.211Z,5.50
2019-01-29T01:38:54.650Z,7.73
2019-01-29T01:41:23.092Z,7.57
2019-01-29T01:43:51.582Z,5.70
2019-01-29T01:46:20.030Z,7.77
2019-01-29T01:48:48.505Z,9.83
2019-01-29T01:51:16.995Z,9.73
2019-01-29T01:53:45.438Z,7.13
2019-01-29T01:56:13.898Z,6.80
2019-01-29T01:58:42.421Z,9.20
2019-01-29T02:01:10.955Z,7.60
2019-01-29T02:03:39.456Z,7.83
2019-01-29T02:06:07.945Z,7.27
2019-01-29T02:08:36.394Z,8.40
2019-01-29T02:11:04.931Z,5.67
2019-01-29T02:13:33.418Z,8.80
2019-01-29T02:16:01.856Z,7.70
2019-01-29T02:18:31.190Z,4.37
2019-01-29T02:20:59.679Z,6.60
2019-01-29T02:23:28.130Z,7.33
2019-01-29T02:25:56.591Z,9.40
2019-01-29T02:28:25.087Z,10.23
2019-01-29T02:30:53.613Z,4.93
2019-01-29T02:33:24.975Z,5.30
2019-01-29T02:35:52.293Z,7.23
2019-01-29T02:38:20.749Z,10.20
2019-01-29T02:40:49.203Z,10.50
2019-01-29T02:43:17.688Z,6.90
2019-01-29T02:45:46.131Z,8.80
2019-01-29T02:48:14.577Z,7.83
2019-01-29T02:50:43.094Z,7.47
2019-01-29T02:53:18.119Z,8.10
2019-01-29T02:55:41.761Z,10.17
2019-01-29T02:58:10.302Z,7.70
2019-01-29T03:00:38.743Z,8.00
2019-01-29T03:03:07.195Z,5.17
2019-01-29T03:05:35.677Z,6.27
2019-01-29T03:08:04.192Z,6.93
2019-01-29T03:10:32.639Z,5.67
2019-01-29T03:13:01.123Z,7.07
2019-01-29T03:15:31.411Z,6.30
2019-01-29T03:17:59.943Z,11.30
2019-01-29T03:20:28.734Z,8.80
2019-01-29T03:22:57.247Z,6.13
2019-01-29T03:25:25.772Z,3.60
2019-01-29T03:27:54.241Z,6.83
2019-01-29T03:30:23.360Z,9.20
2019-01-29T03:32:51.806Z,5.70
2019-01-29T03:35:20.345Z,6.80
2019-01-29T03:37:48.861Z,6.80
2019-01-29T03:40:22.871Z,9.70
2019-01-29T03:42:51.414Z,7.13
2019-01-29T03:45:19.866Z,6.10
2019-01-29T03:47:48.384Z,7.77
2019-01-29T03:50:18.936Z,5.87
2019-01-29T03:52:47.467Z,5.13
2019-01-29T03:55:15.998Z,6.30
2019-01-29T03:57:44.550Z,5.63
2019-01-29T04:00:16.180Z,8.83
2019-01-29T04:02:44.639Z,7.00
2019-01-29T04:05:13.200Z,10.70
2019-01-29T04:07:41.655Z,7.07
2019-01-29T04:10:15.751Z,9.17
2019-01-29T04:12:44.318Z,12.80
2019-01-29T04:15:15.306Z,12.23
2019-01-29T04:17:43.830Z,12.70
2019-01-29T04:20:15.174Z,12.30
2019-01-29T04:22:45.998Z,9.63
2019-01-29T04:25:14.762Z,11.60
2019-01-29T04:27:43.317Z,13.23
2019-01-29T04:30:16.827Z,13.67
2019-01-29T04:32:45.353Z,11.07
2019-01-29T04:35:13.926Z,13.00
2019-01-29T04:37:42.367Z,7.50
2019-01-29T04:40:13.572Z,11.43
2019-01-29T04:42:42.049Z,16.60
2019-01-29T04:45:13.134Z,8.50
2019-01-29T04:47:41.664Z,10.00
2019-01-29T04:50:15.488Z,8.10
2019-01-29T04:52:43.952Z,12.57
2019-01-29T04:55:17.201Z,7.47
2019-01-29T04:57:45.759Z,7.00
2019-01-29T05:00:19.225Z,8.50
2019-01-29T05:02:47.729Z,6.63
2019-01-29T05:05:16.937Z,7.43
2019-01-29T05:07:45.555Z,7.70
2019-01-29T05:10:16.871Z,8.53
2019-01-29T05:12:45.429Z,8.67
2019-01-29T05:15:15.904Z,6.63
2019-01-29T05:17:44.366Z,13.07
2019-01-29T05:20:18.182Z,10.10
2019-01-29T05:22:46.631Z,6.67
2019-01-29T05:25:16.125Z,6.43
2019-01-29T05:27:44.767Z,5.83
2019-01-29T05:30:21.257Z,9.57
2019-01-29T05:32:49.840Z,7.20
2019-01-29T05:35:18.296Z,10.13
2019-01-29T05:37:46.747Z,10.50
2019-01-29T05:40:17.593Z,8.40
2019-01-29T05:42:46.051Z,6.83
2019-01-29T05:45:17.116Z,9.60
2019-01-29T05:47:45.598Z,12.03
2019-01-29T05:50:15.574Z,5.07
2019-01-29T05:52:44.026Z,7.47
2019-01-29T05:55:14.263Z,7.50
2019-01-29T05:57:42.774Z,6.60
2019-01-29T06:00:27.453Z,12.30
2019-01-29T06:02:55.908Z,14.67
2019-01-29T06:05:24.523Z,10.10
2019-01-29T06:07:52.999Z,9.67
2019-01-29T06:10:21.455Z,8.50
2019-01-29T06:12:49.957Z,12.20
2019-01-29T06:15:23.301Z,6.20
2019-01-29T06:17:51.829Z,11.43
2019-01-29T06:20:22.623Z,11.53
2019-01-29T06:22:51.165Z,6.77
2019-01-29T06:25:19.706Z,8.37
2019-01-29T06:27:48.561Z,8.90
2019-01-29T06:30:21.956Z,5.60
2019-01-29T06:32:50.469Z,7.93
2019-01-29T06:35:19.497Z,8.20
2019-01-29T06:37:47.992Z,8.40
2019-01-29T06:40:27.056Z,7.23
2019-01-29T06:42:55.556Z,6.07
2019-01-29T06:45:25.749Z,11.00
2019-01-29T06:47:54.653Z,6.20
2019-01-29T06:50:25.507Z,10.30
2019-01-29T06:52:54.099Z,8.50
2019-01-29T06:55:23.789Z,6.40
2019-01-29T06:57:55.664Z,10.80
2019-01-29T07:00:27.998Z,6.50
2019-01-29T07:02:56.833Z,6.80
2019-01-29T07:05:25.299Z,7.40
2019-01-29T07:07:53.770Z,7.47
2019-01-29T07:10:23.818Z,6.50
2019-01-29T07:12:52.350Z,7.37
2019-01-29T07:15:41.340Z,8.13
2019-01-29T07:18:11.506Z,11.23
2019-01-29T07:20:40.044Z,9.50
2019-01-29T07:23:08.558Z,12.23
2019-01-29T07:25:37.029Z,12.90
2019-01-29T07:28:05.717Z,10.13
2019-01-29T07:30:34.366Z,11.88
2019-01-29T07:33:02.925Z,12.45
2019-01-29T07:35:31.472Z,9.03
2019-01-29T07:37:59.971Z,7.13
2019-01-29T07:40:28.510Z,8.50
2019-01-29T07:42:56.957Z,7.87
2019-01-29T07:45:25.795Z,8.07
2019-01-29T07:47:54.334Z,9.38
2019-01-29T07:50:23.203Z,12.47
2019-01-29T07:52:51.711Z,12.50
2019-01-29T07:55:20.247Z,7.70
2019-01-29T07:57:48.796Z,12.43
2019-01-29T08:00:17.927Z,9.95
2019-01-29T08:02:46.577Z,12.47
2019-01-29T08:05:15.055Z,9.83
2019-01-29T08:07:43.615Z,7.20
2019-01-29T08:10:18.149Z,7.73
2019-01-29T08:12:46.704Z,8.33
2019-01-29T08:15:20.213Z,7.27
2019-01-29T08:17:48.826Z,11.03
2019-01-29T08:20:18.213Z,10.23
2019-01-29T08:22:46.698Z,6.57
2019-01-29T08:25:15.700Z,5.90
2019-01-29T08:27:44.146Z,7.90
2019-01-29T08:30:15.143Z,10.73
2019-01-29T08:32:43.723Z,8.70
2019-01-29T08:35:14.136Z,7.70
2019-01-29T08:37:42.633Z,8.20
2019-01-29T08:40:15.439Z,11.40
2019-01-29T08:42:43.903Z,14.23
2019-01-29T08:45:15.539Z,8.03
2019-01-29T08:47:44.002Z,9.50
2019-01-29T08:50:26.649Z,18.73
2019-01-29T08:52:55.180Z,10.73
2019-01-29T08:55:23.646Z,17.53
2019-01-29T08:57:52.145Z,21.30
2019-01-29T09:00:24.050Z,29.23
2019-01-29T09:02:52.661Z,10.33
2019-01-29T09:05:21.137Z,11.93
2019-01-29T09:07:49.670Z,18.13
2019-01-29T09:10:20.644Z,12.23
2019-01-29T09:12:49.228Z,14.83
2019-01-29T09:15:22.802Z,9.90
2019-01-29T09:17:51.275Z,13.63
2019-01-29T09:20:21.499Z,17.07
2019-01-29T09:22:50.181Z,9.90
2019-01-29T09:25:22.560Z,17.50
2019-01-29T09:27:48.875Z,15.50
2019-01-29T09:30:19.072Z,12.87
2019-01-29T09:32:47.877Z,10.57
2019-01-29T09:35:16.384Z,23.17
2019-01-29T09:37:44.836Z,56.87
2019-01-29T09:40:19.084Z,49.17
2019-01-29T09:42:47.673Z,36.23
2019-01-29T09:45:18.156Z,15.90
2019-01-29T09:47:48.716Z,13.20
2019-01-29T09:50:19.763Z,16.07
2019-01-29T09:52:49.498Z,19.10
2019-01-29T09:55:29.067Z,19.20
2019-01-29T09:57:50.638Z,18.43
2019-01-29T10:00:28.008Z,13.63
2019-01-29T10:02:56.594Z,15.00
2019-01-29T10:05:25.219Z,27.87
2019-01-29T10:07:53.680Z,15.53
2019-01-29T10:10:22.193Z,9.63
2019-01-29T10:12:50.668Z,12.50
2019-01-29T10:15:36.234Z,17.13
2019-01-29T10:18:05.474Z,27.30
2019-01-29T10:20:34.096Z,12.37
2019-01-29T10:23:02.581Z,29.13
2019-01-29T10:25:37.464Z,21.60
2019-01-29T10:28:01.228Z,14.97
2019-01-29T10:30:29.731Z,15.27
2019-01-29T10:32:58.532Z,13.40
2019-01-29T10:35:28.823Z,11.93
2019-01-29T10:37:57.312Z,13.30
2019-01-29T10:40:27.312Z,12.50
2019-01-29T10:42:57.401Z,9.80
2019-01-29T10:45:30.184Z,12.60
2019-01-29T10:47:58.716Z,18.50
2019-01-29T10:50:29.328Z,18.23
2019-01-29T10:52:57.891Z,15.30
2019-01-29T10:55:26.420Z,11.20
2019-01-29T10:57:54.890Z,19.93
2019-01-29T11:00:26.490Z,27.97
2019-01-29T11:02:55.028Z,14.70
2019-01-29T11:05:23.636Z,19.77
2019-01-29T11:07:52.133Z,15.70
2019-01-29T11:10:21.330Z,14.17
2019-01-29T11:12:49.956Z,17.13
2019-01-29T11:15:26.944Z,15.43
2019-01-29T11:17:55.581Z,9.47
2019-01-29T11:20:24.425Z,14.97
2019-01-29T11:22:53.066Z,21.80
2019-01-29T11:25:24.328Z,25.57
2019-01-29T11:27:52.854Z,15.70
2019-01-29T11:30:26.697Z,15.87
2019-01-29T11:32:55.394Z,22.43
2019-01-29T11:35:23.995Z,10.87
2019-01-29T11:37:52.563Z,10.77
2019-01-29T11:40:26.374Z,18.13
2019-01-29T11:42:54.845Z,16.77
2019-01-29T11:45:37.995Z,11.30
2019-01-29T11:48:06.541Z,10.47
2019-01-29T11:50:35.055Z,20.23
2019-01-29T11:53:03.622Z,8.13
2019-01-29T11:55:32.154Z,10.40
2019-01-29T11:58:00.613Z,12.20
2019-01-29T12:00:39.794Z,15.63
2019-01-29T12:03:08.334Z,23.20
2019-01-29T12:05:36.861Z,12.77
2019-01-29T12:08:06.487Z,11.50
2019-01-29T12:10:35.075Z,17.47
2019-01-29T12:13:04.397Z,11.10
2019-01-29T12:15:32.888Z,12.43
2019-01-29T12:18:01.347Z,9.50
2019-01-29T12:20:29.826Z,10.17
2019-01-29T12:22:58.376Z,7.63
2019-01-29T12:25:26.839Z,11.17
2019-01-29T12:27:55.373Z,10.30
2019-01-29T12:30:28.882Z,11.17
2019-01-29T12:32:58.875Z,6.73
2019-01-29T12:35:27.337Z,16.90
2019-01-29T12:37:56.039Z,14.80
2019-01-29T12:40:24.513Z,13.10
2019-01-29T12:42:52.985Z,16.43
2019-01-29T12:45:21.558Z,16.13
2019-01-29T12:47:50.168Z,12.13
2019-01-29T12:50:30.638Z,10.50
2019-01-29T12:53:04.011Z,17.43
2019-01-29T12:55:32.542Z,12.30
2019-01-29T12:58:01.032Z,10.33
2019-01-29T13:00:37.064Z,6.50
2019-01-29T13:03:06.379Z,18.10
2019-01-29T13:05:34.836Z,19.03
2019-01-29T13:08:03.354Z,5.47
2019-01-29T13:10:31.866Z,17.33
2019-01-29T13:13:00.388Z,7.13
2019-01-29T13:15:30.613Z,12.13
2019-01-29T13:18:00.612Z,10.47
2019-01-29T13:20:29.070Z,13.30
2019-01-29T13:22:57.666Z,10.13
2019-01-29T13:25:26.473Z,15.03
2019-01-29T13:27:54.950Z,12.47
2019-01-29T13:30:31.139Z,9.07
2019-01-29T13:32:59.800Z,9.53
2019-01-29T13:35:30.910Z,14.97
2019-01-29T13:37:59.428Z,15.37
2019-01-29T13:40:28.805Z,28.60
2019-01-29T13:42:57.255Z,9.20
2019-01-29T13:45:25.776Z,7.60
2019-01-29T13:47:54.279Z,11.33
2019-01-29T13:50:31.792Z,8.70
2019-01-29T13:53:00.293Z,7.03
2019-01-29T13:55:28.741Z,7.80
2019-01-29T13:57:57.213Z,11.23
2019-01-29T14:00:28.608Z,12.23
2019-01-29T14:02:57.062Z,14.70
2019-01-29T14:05:25.607Z,10.10
2019-01-29T14:07:54.143Z,7.33
2019-01-29T14:10:23.097Z,12.90
2019-01-29T14:12:51.568Z,8.57
2019-01-29T14:15:32.374Z,3.83
2019-01-29T14:18:00.832Z,9.83
2019-01-29T14:20:29.275Z,7.10
2019-01-29T14:22:57.791Z,10.13
2019-01-29T14:25:26.234Z,6.43
2019-01-29T14:27:54.701Z,6.60
2019-01-29T14:30:28.298Z,15.63
2019-01-29T14:32:56.765Z,10.80
2019-01-29T14:35:25.234Z,5.70
2019-01-29T14:37:59.978Z,7.97
2019-01-29T14:40:29.288Z,10.93
2019-01-29T14:42:58.413Z,19.13
2019-01-29T14:45:31.053Z,8.93
2019-01-29T14:47:59.506Z,5.67
2019-01-29T14:50:28.336Z,6.33
2019-01-29T14:52:56.821Z,11.13
2019-01-29T14:55:25.817Z,10.60
2019-01-29T14:57:54.267Z,6.43
2019-01-29T15:00:33.841Z,8.13
2019-01-29T15:03:02.291Z,6.27
2019-01-29T15:05:30.822Z,9.30
2019-01-29T15:07:59.396Z,8.70
2019-01-29T15:10:31.962Z,8.63
2019-01-29T15:13:00.565Z,10.40
2019-01-29T15:15:35.875Z,14.87
2019-01-29T15:18:15.372Z,12.53
2019-01-29T15:20:43.856Z,16.33
2019-01-29T15:23:12.347Z,24.07
2019-01-29T15:25:40.824Z,39.30
2019-01-29T15:28:09.566Z,22.40
2019-01-29T15:30:38.106Z,50.83
2019-01-29T15:33:06.736Z,24.20
2019-01-29T15:35:36.811Z,29.13
2019-01-29T15:38:05.502Z,30.40
2019-01-29T15:40:34.061Z,25.23
2019-01-29T15:43:02.586Z,8.93
2019-01-29T15:45:33.337Z,20.83
2019-01-29T15:48:01.803Z,10.30
2019-01-29T15:50:32.334Z,14.03
2019-01-29T15:53:00.935Z,19.60
2019-01-29T15:55:29.465Z,14.57
2019-01-29T15:57:58.010Z,26.23
2019-01-29T16:00:33.606Z,16.47
2019-01-29T16:03:02.144Z,9.40
2019-01-29T16:05:33.321Z,10.17
2019-01-29T16:08:01.925Z,17.83
2019-01-29T16:10:39.415Z,10.93
2019-01-29T16:13:03.781Z,11.83
2019-01-29T16:15:32.645Z,17.97
2019-01-29T16:18:01.111Z,9.80
2019-01-29T16:20:29.589Z,9.53
2019-01-29T16:22:58.050Z,11.43
2019-01-29T16:25:31.474Z,13.67
2019-01-29T16:27:59.985Z,14.90
2019-01-29T16:30:32.853Z,12.87
2019-01-29T16:33:01.948Z,8.00
2019-01-29T16:35:32.281Z,13.47
2019-01-29T16:38:00.727Z,6.90
2019-01-29T16:40:34.985Z,14.53
2019-01-29T16:43:03.479Z,22.80
2019-01-29T16:45:33.592Z,8.50
2019-01-29T16:48:03.256Z,14.83
2019-01-29T16:50:31.826Z,11.10
2019-01-29T16:53:00.517Z,12.53
2019-01-29T16:55:29.032Z,21.17
2019-01-29T16:57:57.542Z,20.50
2019-01-29T17:00:32.741Z,13.00
2019-01-29T17:03:01.699Z,18.37
2019-01-29T17:05:30.802Z,23.83
2019-01-29T17:08:00.894Z,22.43
2019-01-29T17:10:32.014Z,24.60
2019-01-29T17:13:00.482Z,11.53
2019-01-29T17:15:34.444Z,23.63
2019-01-29T17:18:03.100Z,11.10
2019-01-29T17:20:34.188Z,8.60
2019-01-29T17:23:03.234Z,13.57
2019-01-29T17:25:31.721Z,17.70
2019-01-29T17:28:00.190Z,15.50
2019-01-29T17:30:39.711Z,17.33
2019-01-29T17:33:08.783Z,14.07
2019-01-29T17:35:38.984Z,19.53
2019-01-29T17:38:07.552Z,16.87
2019-01-29T17:40:36.026Z,21.93
2019-01-29T17:43:04.821Z,16.13
2019-01-29T17:45:38.875Z,14.07
2019-01-29T17:48:07.562Z,15.23
2019-01-29T17:50:39.396Z,13.73
2019-01-29T17:53:08.014Z,13.90
2019-01-29T17:55:38.112Z,12.07
2019-01-29T17:58:07.348Z,16.90
2019-01-29T18:00:37.552Z,19.73
2019-01-29T18:03:06.830Z,12.17
2019-01-29T18:05:35.349Z,18.10
2019-01-29T18:08:04.025Z,14.03
2019-01-29T18:10:33.157Z,13.30
2019-01-29T18:13:01.586Z,15.40
2019-01-29T18:15:31.136Z,23.03
2019-01-29T18:17:59.588Z,20.20
2019-01-29T18:20:28.114Z,23.33
2019-01-29T18:22:56.682Z,17.43
2019-01-29T18:25:25.140Z,14.13
2019-01-29T18:28:01.007Z,21.00
2019-01-29T18:30:32.031Z,22.30
2019-01-29T18:33:00.597Z,29.40
2019-01-29T18:35:29.059Z,22.63
2019-01-29T18:37:57.587Z,20.53
2019-01-29T18:40:37.790Z,23.40
2019-01-29T18:43:06.555Z,17.77
2019-01-29T18:45:35.007Z,14.03
2019-01-29T18:48:03.466Z,26.93
2019-01-29T18:50:31.966Z,19.27
2019-01-29T18:53:00.604Z,15.23
2019-01-29T18:55:29.062Z,26.47
2019-01-29T18:57:57.542Z,11.60
2019-01-29T19:00:26.673Z,22.17
2019-01-29T19:02:55.121Z,13.33
2019-01-29T19:05:25.630Z,28.03
2019-01-29T19:07:54.091Z,15.37
2019-01-29T19:10:22.612Z,19.20
2019-01-29T19:12:51.247Z,25.63
2019-01-29T19:15:22.213Z,22.07
2019-01-29T19:17:50.841Z,25.83
2019-01-29T19:20:21.387Z,22.73
2019-01-29T19:22:49.850Z,29.73
2019-01-29T19:25:18.310Z,28.57
2019-01-29T19:27:46.803Z,21.80
2019-01-29T19:30:29.871Z,20.90
2019-01-29T19:32:58.399Z,17.77
2019-01-29T19:35:26.994Z,21.30
2019-01-29T19:37:55.464Z,21.07
2019-01-29T19:40:24.231Z,21.10
2019-01-29T19:42:52.691Z,23.10
2019-01-29T19:45:26.490Z,30.83
2019-01-29T19:47:56.066Z,26.87
2019-01-29T19:50:29.908Z,21.77
2019-01-29T19:52:59.258Z,24.53
2019-01-29T19:55:28.169Z,23.47
2019-01-29T19:57:56.727Z,24.03
2019-01-29T20:00:30.893Z,16.70
2019-01-29T20:02:59.463Z,18.13
2019-01-29T20:05:27.913Z,15.50
2019-01-29T20:07:56.535Z,19.10
2019-01-29T20:10:25.044Z,19.73
2019-01-29T20:12:53.556Z,19.00
2019-01-29T20:15:24.357Z,13.80
2019-01-29T20:17:54.190Z,21.83
2019-01-29T20:20:25.295Z,23.60
2019-01-29T20:22:53.838Z,23.23
2019-01-29T20:25:22.332Z,15.00
2019-01-29T20:27:53.102Z,11.53
2019-01-29T20:30:23.603Z,22.80
2019-01-29T20:32:53.447Z,17.90
2019-01-29T20:35:22.302Z,14.23
2019-01-29T20:37:50.824Z,17.43
2019-01-29T20:40:21.575Z,29.67
2019-01-29T20:42:50.036Z,26.50
2019-01-29T20:45:18.562Z,26.23
2019-01-29T20:47:47.423Z,23.53
2019-01-29T20:50:19.041Z,22.47
2019-01-29T20:52:47.508Z,21.27
2019-01-29T20:55:16.069Z,18.33
2019-01-29T20:57:44.750Z,12.63
2019-01-29T21:00:16.630Z,18.63
2019-01-29T21:02:45.135Z,23.73
2019-01-29T21:05:13.758Z,22.37
2019-01-29T21:07:42.304Z,13.17
2019-01-29T21:10:18.860Z,18.90
2019-01-29T21:12:47.324Z,23.20
2019-01-29T21:15:17.531Z,12.93
2019-01-29T21:17:46.104Z,11.80
2019-01-29T21:20:16.821Z,18.57
2019-01-29T21:22:45.363Z,23.30
2019-01-29T21:25:14.540Z,21.87
2019-01-29T21:27:43.047Z,21.83
2019-01-29T21:30:17.449Z,28.77
2019-01-29T21:32:46.068Z,21.63
2019-01-29T21:35:14.525Z,29.87
2019-01-29T21:37:43.002Z,25.00
2019-01-29T21:40:13.802Z,14.77
2019-01-29T21:42:42.290Z,19.03
2019-01-29T21:45:16.313Z,27.33
2019-01-29T21:47:44.938Z,20.83
2019-01-29T21:50:19.374Z,19.07
2019-01-29T21:52:47.930Z,16.67
2019-01-29T21:55:17.024Z,16.93
2019-01-29T21:57:45.551Z,20.73
2019-01-29T22:00:20.305Z,23.10
2019-01-29T22:02:48.764Z,13.33
2019-01-29T22:05:17.286Z,17.00
2019-01-29T22:07:45.773Z,16.53
2019-01-29T22:10:17.865Z,21.57
2019-01-29T22:12:46.402Z,13.83
2019-01-29T22:15:20.469Z,22.53
2019-01-29T22:17:49.007Z,13.50
2019-01-29T22:20:19.314Z,16.43
2019-01-29T22:22:47.817Z,22.87
2019-01-29T22:25:21.141Z,25.57
2019-01-29T22:27:49.654Z,17.03
2019-01-29T22:30:24.111Z,13.93
2019-01-29T22:32:52.567Z,16.53
2019-01-29T22:35:21.109Z,17.43
2019-01-29T22:37:49.619Z,14.40
2019-01-29T22:40:22.794Z,15.10
2019-01-29T22:42:51.254Z,13.90
2019-01-29T22:45:19.754Z,23.43
2019-01-29T22:47:48.297Z,12.73
2019-01-29T22:50:19.319Z,27.33
2019-01-29T22:52:47.814Z,24.73
2019-01-29T22:55:16.352Z,20.13
2019-01-29T22:57:44.820Z,16.70
2019-01-29T23:00:18.136Z,12.60
2019-01-29T23:02:47.645Z,24.83
2019-01-29T23:05:16.089Z,17.53
2019-01-29T23:07:44.586Z,16.70
2019-01-29T23:10:16.054Z,18.10
2019-01-29T23:12:44.517Z,23.63
2019-01-29T23:15:15.973Z,18.73
2019-01-29T23:17:44.452Z,23.03
2019-01-29T23:20:15.658Z,18.83
2019-01-29T23:22:44.178Z,27.97
2019-01-29T23:25:12.724Z,17.63
2019-01-29T23:27:41.260Z,25.10
2019-01-29T23:30:16.342Z,22.53
2019-01-29T23:32:44.878Z,27.80
2019-01-29T23:35:13.494Z,12.47
2019-01-29T23:37:41.998Z,25.23
2019-01-29T23:40:15.210Z,20.93
2019-01-29T23:42:43.676Z,27.20
2019-01-29T23:45:13.910Z,29.93
2019-01-29T23:47:42.431Z,19.30
2019-01-29T23:50:13.418Z,21.97
2019-01-29T23:52:41.929Z,21.27
2019-01-29T23:55:11.241Z,28.30
2019-01-29T23:57:39.711Z,18.07
